createdAt,value
2019-01-23T00:00:33.273Z,24.78
2019-01-23T00:02:40.588Z,24.74
2019-01-23T00:04:47.884Z,24.79
2019-01-23T00:07:12.221Z,24.77
2019-01-23T00:09:23.684Z,24.72
2019-01-23T00:11:30.881Z,24.70
2019-01-23T00:13:37.996Z,24.61
2019-01-23T00:15:45.889Z,24.63
2019-01-23T00:17:53.129Z,24.48
2019-01-23T00:20:00.443Z,24.68
2019-01-23T00:22:08.177Z,24.64
2019-01-23T00:24:15.649Z,24.71
2019-01-23T00:26:23.476Z,24.74
2019-01-23T00:28:30.725Z,24.75
2019-01-23T00:30:38.022Z,24.71
2019-01-23T00:33:00.473Z,24.66
2019-01-23T00:35:23.052Z,24.66
2019-01-23T00:37:37.379Z,24.62
2019-01-23T00:39:45.716Z,24.61
2019-01-23T00:41:53.756Z,24.64
2019-01-23T00:44:01.999Z,24.65
2019-01-23T00:47:02.479Z,24.55
2019-01-23T00:48:57.255Z,24.54
2019-01-23T00:51:11.433Z,24.53
2019-01-23T00:53:32.635Z,24.52
2019-01-23T00:55:50.482Z,24.33
2019-01-23T00:58:38.037Z,24.45
2019-01-23T01:01:13.258Z,24.33
2019-01-23T01:03:39.707Z,24.31
2019-01-23T01:06:05.376Z,24.43
2019-01-23T01:08:25.864Z,24.41
2019-01-23T01:13:28.358Z,24.47
2019-01-23T01:16:03.813Z,24.50
2019-01-23T01:18:36.099Z,24.38
2019-01-23T01:21:17.287Z,24.20
2019-01-23T01:26:01.022Z,24.16
2019-01-23T01:28:24.380Z,23.53
2019-01-23T01:30:49.789Z,22.63
2019-01-23T01:33:09.007Z,21.62
2019-01-23T01:35:32.162Z,21.86
2019-01-23T01:37:56.378Z,21.97
2019-01-23T01:40:31.526Z,22.28
2019-01-23T01:43:06.282Z,22.50
2019-01-23T01:45:41.681Z,22.46
2019-01-23T01:48:09.693Z,22.45
2019-01-23T01:50:19.204Z,22.56
2019-01-23T01:55:49.743Z,22.92
2019-01-23T01:58:28.110Z,23.30
2019-01-23T02:00:40.317Z,23.50
2019-01-23T02:03:23.166Z,23.66
2019-01-23T02:12:16.590Z,23.72
2019-01-23T02:15:45.835Z,23.65
2019-01-23T02:18:22.520Z,23.57
2019-01-23T02:23:40.182Z,23.44
2019-01-23T02:26:33.194Z,23.38
2019-01-23T02:28:42.021Z,23.29
2019-01-23T02:31:35.120Z,23.27
2019-01-23T02:33:36.877Z,23.17
2019-01-23T02:38:46.899Z,23.17
2019-01-23T02:41:23.610Z,23.16
2019-01-23T02:43:31.024Z,23.12
2019-01-23T02:46:21.601Z,23.14
2019-01-23T02:55:04.907Z,23.10
2019-01-23T02:58:19.581Z,23.03
2019-01-23T03:00:51.067Z,23.04
2019-01-23T03:03:49.179Z,22.99
2019-01-23T03:06:21.243Z,23.00
2019-01-23T03:08:22.631Z,22.94
2019-01-23T03:10:53.743Z,23.02
2019-01-23T03:13:23.330Z,23.00
2019-01-23T03:18:28.838Z,23.02
2019-01-23T03:20:55.972Z,23.02
2019-01-23T03:23:17.810Z,22.95
2019-01-23T03:25:26.585Z,22.97
2019-01-23T03:28:02.942Z,22.92
2019-01-23T03:36:20.623Z,22.89
2019-01-23T03:38:29.578Z,22.89
2019-01-23T03:40:44.369Z,22.84
2019-01-23T03:42:59.910Z,22.81
2019-01-23T03:45:09.096Z,22.86
2019-01-23T03:47:16.815Z,22.85
2019-01-23T03:49:33.836Z,22.84
2019-01-23T03:54:12.368Z,22.80
2019-01-23T03:56:19.999Z,22.73
2019-01-23T03:58:27.380Z,22.73
2019-01-23T04:00:49.807Z,22.70
2019-01-23T04:03:13.058Z,22.74
2019-01-23T04:06:02.375Z,22.75
2019-01-23T04:08:31.332Z,22.75
2019-01-23T04:11:23.209Z,22.62
2019-01-23T04:13:57.336Z,22.51
2019-01-23T04:16:51.567Z,22.61
2019-01-23T04:18:40.019Z,22.58
2019-01-23T04:21:12.737Z,22.58
2019-01-23T04:23:30.840Z,22.66
2019-01-23T04:26:04.249Z,22.63
2019-01-23T04:28:21.144Z,22.64
2019-01-23T04:30:35.853Z,22.59
2019-01-23T04:33:00.866Z,22.58
2019-01-23T04:35:13.316Z,22.59
2019-01-23T04:37:31.316Z,22.80
2019-01-23T04:39:39.736Z,22.98
2019-01-23T04:41:47.564Z,23.13
2019-01-23T04:43:54.720Z,23.25
2019-01-23T04:46:02.723Z,23.40
2019-01-23T04:48:10.888Z,23.50
2019-01-23T04:50:18.785Z,23.56
2019-01-23T04:52:54.041Z,23.55
2019-01-23T04:55:01.469Z,23.44
2019-01-23T04:57:08.602Z,23.38
2019-01-23T04:59:16.620Z,23.28
2019-01-23T05:01:24.066Z,23.21
2019-01-23T05:03:33.019Z,23.13
2019-01-23T05:05:40.309Z,23.08
2019-01-23T05:07:49.687Z,23.01
2019-01-23T05:09:57.650Z,23.01
2019-01-23T05:12:06.238Z,22.91
2019-01-23T05:14:13.613Z,22.88
2019-01-23T05:16:22.502Z,22.86
2019-01-23T05:18:29.911Z,22.85
2019-01-23T05:20:37.095Z,22.81
2019-01-23T05:22:46.923Z,22.77
2019-01-23T05:26:32.846Z,22.76
2019-01-23T05:27:08.040Z,22.70
2019-01-23T05:29:15.333Z,22.70
2019-01-23T05:31:23.761Z,22.74
2019-01-23T05:33:31.062Z,22.58
2019-01-23T05:35:38.489Z,22.95
2019-01-23T05:37:46.274Z,23.10
2019-01-23T05:39:53.402Z,23.24
2019-01-23T05:42:01.778Z,23.36
2019-01-23T05:44:09.865Z,23.51
2019-01-23T05:46:27.117Z,23.54
2019-01-23T05:48:38.245Z,23.56
2019-01-23T05:51:03.620Z,23.52
2019-01-23T05:53:09.169Z,23.42
2019-01-23T05:55:43.015Z,23.35
2019-01-23T05:57:50.622Z,23.28
2019-01-23T06:00:02.533Z,23.14
2019-01-23T06:02:22.208Z,23.05
2019-01-23T06:04:45.707Z,22.98
2019-01-23T06:06:59.817Z,22.93
2019-01-23T06:09:09.983Z,22.83
2019-01-23T06:11:29.602Z,22.79
2019-01-23T06:13:37.087Z,22.75
2019-01-23T06:15:44.610Z,22.71
2019-01-23T06:17:52.540Z,22.64
2019-01-23T06:20:00.387Z,22.63
2019-01-23T06:22:07.757Z,22.62
2019-01-23T06:24:15.534Z,22.69
2019-01-23T06:26:22.759Z,22.88
2019-01-23T06:28:30.471Z,23.03
2019-01-23T06:30:38.357Z,23.18
2019-01-23T06:32:45.520Z,23.24
2019-01-23T06:34:52.984Z,23.34
2019-01-23T06:37:13.364Z,23.36
2019-01-23T06:39:21.118Z,23.33
2019-01-23T06:41:29.111Z,23.30
2019-01-23T06:43:36.520Z,23.30
2019-01-23T06:45:44.602Z,23.17
2019-01-23T06:47:52.045Z,23.08
2019-01-23T06:50:00.575Z,23.00
2019-01-23T06:52:07.956Z,22.93
2019-01-23T06:54:15.195Z,22.83
2019-01-23T06:56:22.962Z,22.80
2019-01-23T06:58:30.216Z,22.69
2019-01-23T07:00:37.527Z,22.68
2019-01-23T07:02:46.826Z,22.65
2019-01-23T07:04:54.092Z,22.64
2019-01-23T07:07:02.675Z,22.60
2019-01-23T07:09:11.217Z,22.61
2019-01-23T07:11:19.087Z,22.64
2019-01-23T07:13:26.332Z,22.77
2019-01-23T07:15:33.667Z,22.92
2019-01-23T07:17:41.787Z,23.05
2019-01-23T07:19:49.043Z,23.17
2019-01-23T07:21:57.780Z,23.23
2019-01-23T07:24:05.888Z,23.36
2019-01-23T07:26:13.860Z,23.33
2019-01-23T07:28:21.115Z,23.33
2019-01-23T07:30:30.861Z,23.27
2019-01-23T07:32:38.117Z,23.15
2019-01-23T07:34:45.984Z,23.08
2019-01-23T07:37:24.356Z,23.02
2019-01-23T07:39:31.566Z,22.90
2019-01-23T07:41:41.359Z,22.84
2019-01-23T07:43:56.543Z,22.77
2019-01-23T07:46:15.816Z,22.71
2019-01-23T07:48:23.136Z,22.63
2019-01-23T07:50:36.406Z,22.60
2019-01-23T07:52:43.083Z,22.55
2019-01-23T07:55:12.807Z,22.49
2019-01-23T07:57:24.178Z,22.47
2019-01-23T07:59:31.871Z,22.42
2019-01-23T08:01:39.560Z,22.46
2019-01-23T08:03:47.511Z,22.58
2019-01-23T08:05:54.901Z,22.75
2019-01-23T08:08:02.520Z,22.90
2019-01-23T08:10:11.623Z,23.02
2019-01-23T08:12:18.743Z,23.10
2019-01-23T08:14:26.274Z,23.18
2019-01-23T08:16:33.539Z,23.24
2019-01-23T08:18:40.643Z,23.18
2019-01-23T08:20:48.056Z,23.11
2019-01-23T08:22:56.113Z,23.04
2019-01-23T08:25:03.305Z,22.94
2019-01-23T08:27:13.993Z,22.88
2019-01-23T08:29:21.453Z,22.83
2019-01-23T08:31:28.857Z,22.80
2019-01-23T08:33:36.097Z,22.74
2019-01-23T08:35:43.757Z,22.68
2019-01-23T08:37:50.992Z,22.64
2019-01-23T08:39:58.335Z,22.60
2019-01-23T08:42:05.619Z,22.52
2019-01-23T08:44:12.861Z,22.47
2019-01-23T08:46:20.252Z,22.42
2019-01-23T08:48:28.320Z,22.48
2019-01-23T08:50:40.560Z,22.60
2019-01-23T08:52:47.920Z,22.75
2019-01-23T08:54:55.228Z,22.91
2019-01-23T08:57:03.339Z,23.04
2019-01-23T08:59:10.700Z,23.14
2019-01-23T09:01:18.609Z,23.25
2019-01-23T09:03:26.574Z,23.31
2019-01-23T09:05:33.800Z,23.24
2019-01-23T09:07:40.961Z,23.18
2019-01-23T09:09:48.105Z,23.12
2019-01-23T09:11:56.051Z,23.02
2019-01-23T09:14:03.353Z,22.94
2019-01-23T09:16:10.792Z,22.90
2019-01-23T09:18:18.039Z,22.87
2019-01-23T09:20:25.522Z,22.79
2019-01-23T09:22:32.610Z,22.69
2019-01-23T09:24:40.502Z,22.62
2019-01-23T09:26:47.597Z,22.57
2019-01-23T09:28:55.049Z,22.53
2019-01-23T09:31:48.043Z,22.53
2019-01-23T09:34:38.612Z,22.46
2019-01-23T09:37:25.938Z,22.44
2019-01-23T09:40:00.623Z,22.36
2019-01-23T09:42:44.824Z,22.29
2019-01-23T09:45:20.124Z,22.28
2019-01-23T09:47:48.109Z,22.24
2019-01-23T09:50:32.810Z,22.32
2019-01-23T09:52:59.773Z,22.44
2019-01-23T09:55:08.660Z,22.58
2019-01-23T09:57:16.525Z,22.69
2019-01-23T09:59:24.424Z,22.78
2019-01-23T10:01:31.772Z,22.94
2019-01-23T10:03:39.108Z,23.05
2019-01-23T10:05:47.270Z,23.18
2019-01-23T10:07:55.370Z,23.28
2019-01-23T10:10:02.586Z,23.37
2019-01-23T10:12:10.485Z,23.43
2019-01-23T10:14:17.642Z,23.54
2019-01-23T10:16:25.429Z,23.59
2019-01-23T10:18:33.557Z,23.64
2019-01-23T10:20:40.975Z,23.73
2019-01-23T10:22:48.078Z,23.69
2019-01-23T10:24:56.180Z,23.57
2019-01-23T10:27:03.655Z,23.45
2019-01-23T10:29:11.140Z,23.36
2019-01-23T10:31:18.175Z,23.32
2019-01-23T10:33:25.397Z,23.27
2019-01-23T10:35:33.025Z,23.22
2019-01-23T10:37:40.351Z,23.19
2019-01-23T10:39:48.311Z,23.16
2019-01-23T10:41:55.884Z,23.10
2019-01-23T10:44:02.924Z,23.03
2019-01-23T10:46:10.159Z,22.97
2019-01-23T10:48:17.628Z,22.93
2019-01-23T10:50:24.641Z,22.90
2019-01-23T10:52:31.852Z,22.83
2019-01-23T10:54:38.992Z,22.79
2019-01-23T10:56:46.217Z,22.71
2019-01-23T10:58:53.491Z,22.68
2019-01-23T11:01:00.626Z,22.64
2019-01-23T11:03:10.119Z,22.60
2019-01-23T11:05:20.245Z,22.59
2019-01-23T11:07:28.593Z,22.56
2019-01-23T11:09:35.857Z,22.50
2019-01-23T11:11:43.689Z,22.48
2019-01-23T11:13:51.374Z,22.41
2019-01-23T11:15:59.479Z,22.38
2019-01-23T11:18:06.966Z,22.34
2019-01-23T11:20:16.433Z,22.38
2019-01-23T11:22:23.764Z,22.29
2019-01-23T11:24:30.891Z,22.31
2019-01-23T11:26:38.572Z,22.41
2019-01-23T11:28:46.005Z,22.57
2019-01-23T11:30:53.220Z,22.74
2019-01-23T11:33:00.390Z,22.88
2019-01-23T11:35:08.100Z,23.06
2019-01-23T11:37:15.364Z,23.18
2019-01-23T11:39:22.935Z,23.26
2019-01-23T11:41:30.362Z,23.32
2019-01-23T11:43:37.794Z,23.37
2019-01-23T11:45:44.888Z,23.36
2019-01-23T11:47:52.113Z,23.22
2019-01-23T11:49:59.550Z,23.14
2019-01-23T11:52:07.946Z,23.02
2019-01-23T11:54:15.107Z,22.99
2019-01-23T11:56:22.435Z,22.95
2019-01-23T11:58:29.828Z,22.91
2019-01-23T12:00:37.984Z,22.90
2019-01-23T12:02:45.148Z,22.83
2019-01-23T12:04:52.520Z,22.77
2019-01-23T12:06:59.891Z,22.90
2019-01-23T12:09:09.673Z,23.03
2019-01-23T12:11:16.771Z,23.16
2019-01-23T12:13:25.066Z,23.31
2019-01-23T12:15:32.175Z,23.43
2019-01-23T12:17:39.448Z,23.54
2019-01-23T12:19:47.397Z,23.65
2019-01-23T12:21:54.729Z,23.55
2019-01-23T12:24:02.071Z,23.45
2019-01-23T12:26:09.476Z,23.36
2019-01-23T12:28:16.610Z,23.29
2019-01-23T12:30:29.482Z,23.21
2019-01-23T12:32:36.638Z,23.18
2019-01-23T12:34:43.922Z,23.09
2019-01-23T12:36:51.078Z,23.07
2019-01-23T12:38:58.489Z,23.17
2019-01-23T12:41:06.482Z,23.32
2019-01-23T12:43:13.645Z,23.47
2019-01-23T12:45:22.947Z,23.52
2019-01-23T12:47:30.020Z,23.61
2019-01-23T12:49:37.947Z,23.70
2019-01-23T12:51:45.205Z,23.79
2019-01-23T12:53:52.515Z,23.85
2019-01-23T12:55:59.824Z,23.93
2019-01-23T12:58:08.005Z,24.00
2019-01-23T13:00:21.622Z,24.03
2019-01-23T13:02:28.778Z,24.10
2019-01-23T13:04:36.277Z,24.21
2019-01-23T13:06:43.603Z,24.31
2019-01-23T13:08:50.754Z,24.42
2019-01-23T13:10:58.037Z,24.47
2019-01-23T13:13:06.155Z,24.58
2019-01-23T13:15:15.175Z,24.67
2019-01-23T13:17:22.521Z,24.74
2019-01-23T13:19:29.643Z,24.79
2019-01-23T13:21:36.832Z,24.88
2019-01-23T13:23:44.095Z,24.89
2019-01-23T13:25:51.460Z,24.90
2019-01-23T13:28:00.013Z,24.89
2019-01-23T13:30:08.288Z,24.94
2019-01-23T13:32:15.344Z,24.95
2019-01-23T13:34:24.242Z,25.00
2019-01-23T13:36:32.175Z,25.02
2019-01-23T13:38:39.510Z,25.07
2019-01-23T13:40:46.761Z,25.12
2019-01-23T13:42:54.226Z,25.15
2019-01-23T13:45:01.381Z,25.18
2019-01-23T13:47:08.694Z,25.18
2019-01-23T13:49:21.970Z,25.23
2019-01-23T13:51:29.464Z,25.25
2019-01-23T13:53:37.637Z,25.27
2019-01-23T13:55:45.154Z,25.12
2019-01-23T13:58:09.649Z,24.96
2019-01-23T14:00:40.268Z,24.92
2019-01-23T14:02:52.052Z,24.78
2019-01-23T14:05:17.980Z,24.74
2019-01-23T14:07:29.675Z,24.62
2019-01-23T14:09:56.168Z,24.60
2019-01-23T14:12:14.467Z,24.59
2019-01-23T14:14:24.456Z,24.61
2019-01-23T14:17:03.259Z,24.58
2019-01-23T14:19:22.021Z,24.53
2019-01-23T14:21:43.725Z,24.54
2019-01-23T14:23:58.266Z,24.69
2019-01-23T14:26:12.064Z,24.84
2019-01-23T14:28:26.542Z,25.00
2019-01-23T14:30:36.049Z,24.81
2019-01-23T14:32:44.465Z,25.19
2019-01-23T14:34:51.653Z,25.24
2019-01-23T14:36:59.052Z,25.38
2019-01-23T14:39:07.813Z,25.45
2019-01-23T14:41:14.771Z,25.21
2019-01-23T14:43:22.102Z,25.13
2019-01-23T14:45:29.656Z,25.01
2019-01-23T14:47:37.499Z,24.95
2019-01-23T14:49:45.497Z,24.84
2019-01-23T14:51:52.732Z,24.74
2019-01-23T14:54:00.612Z,24.59
2019-01-23T14:56:07.963Z,24.48
2019-01-23T14:58:15.443Z,24.40
2019-01-23T15:00:24.872Z,24.35
2019-01-23T15:02:32.208Z,24.31
2019-01-23T15:04:40.266Z,24.28
2019-01-23T15:06:47.508Z,24.37
2019-01-23T15:08:54.842Z,24.57
2019-01-23T15:11:02.228Z,24.75
2019-01-23T15:13:09.565Z,24.78
2019-01-23T15:15:18.355Z,24.94
2019-01-23T15:17:25.724Z,24.99
2019-01-23T15:19:32.753Z,25.10
2019-01-23T15:21:40.835Z,25.18
2019-01-23T15:23:48.122Z,25.23
2019-01-23T15:25:55.253Z,25.28
2019-01-23T15:28:02.580Z,25.18
2019-01-23T15:30:10.285Z,25.19
2019-01-23T15:32:17.691Z,25.05
2019-01-23T15:34:24.866Z,25.00
2019-01-23T15:36:32.213Z,24.86
2019-01-23T15:38:39.472Z,24.63
2019-01-23T15:40:47.198Z,24.55
2019-01-23T15:42:54.459Z,24.40
2019-01-23T15:45:01.775Z,24.30
2019-01-23T15:47:09.555Z,24.16
2019-01-23T15:49:16.763Z,23.79
2019-01-23T15:51:23.904Z,24.11
2019-01-23T15:53:32.371Z,24.25
2019-01-23T15:55:39.612Z,24.40
2019-01-23T15:57:46.832Z,24.46
2019-01-23T15:59:54.157Z,24.53
2019-01-23T16:02:01.368Z,24.60
2019-01-23T16:04:08.747Z,24.69
2019-01-23T16:06:16.245Z,24.82
2019-01-23T16:08:24.519Z,24.86
2019-01-23T16:10:32.999Z,24.90
2019-01-23T16:12:40.269Z,24.96
2019-01-23T16:14:48.344Z,24.85
2019-01-23T16:16:55.452Z,24.73
2019-01-23T16:19:03.088Z,24.79
2019-01-23T16:21:10.473Z,24.77
2019-01-23T16:23:17.648Z,24.54
2019-01-23T16:25:24.987Z,24.37
2019-01-23T16:27:32.795Z,24.34
2019-01-23T16:29:40.196Z,24.30
2019-01-23T16:31:47.602Z,24.32
2019-01-23T16:33:56.173Z,24.33
2019-01-23T16:36:03.193Z,24.39
2019-01-23T16:38:13.505Z,24.52
2019-01-23T16:40:20.545Z,24.62
2019-01-23T16:42:28.064Z,24.78
2019-01-23T16:44:35.274Z,24.88
2019-01-23T16:46:42.523Z,25.03
2019-01-23T16:48:50.551Z,25.16
2019-01-23T16:50:59.114Z,25.23
2019-01-23T16:53:06.966Z,25.28
2019-01-23T16:55:14.294Z,25.29
2019-01-23T16:57:21.553Z,25.27
2019-01-23T16:59:28.742Z,25.24
2019-01-23T17:01:36.709Z,25.23
2019-01-23T17:03:44.351Z,25.16
2019-01-23T17:05:52.631Z,25.02
2019-01-23T17:08:00.853Z,25.00
2019-01-23T17:10:09.945Z,24.95
2019-01-23T17:12:27.053Z,24.88
2019-01-23T17:14:34.223Z,24.86
2019-01-23T17:16:47.055Z,24.84
2019-01-23T17:18:54.976Z,24.83
2019-01-23T17:21:02.741Z,24.82
2019-01-23T17:23:11.040Z,24.77
2019-01-23T17:25:18.501Z,24.76
2019-01-23T17:27:25.807Z,24.73
2019-01-23T17:29:33.299Z,24.66
2019-01-23T17:31:40.398Z,24.59
2019-01-23T17:33:50.060Z,24.58
2019-01-23T17:35:57.715Z,24.49
2019-01-23T17:38:05.174Z,24.47
2019-01-23T17:40:14.648Z,24.47
2019-01-23T17:42:22.769Z,24.40
2019-01-23T17:44:30.682Z,24.43
2019-01-23T17:46:38.638Z,24.48
2019-01-23T17:48:45.488Z,24.53
2019-01-23T17:50:53.959Z,24.71
2019-01-23T17:53:02.085Z,24.90
2019-01-23T17:55:12.495Z,25.01
2019-01-23T17:57:20.458Z,25.12
2019-01-23T17:59:27.592Z,25.12
2019-01-23T18:01:35.469Z,25.14
2019-01-23T18:03:43.404Z,25.13
2019-01-23T18:05:51.192Z,25.13
2019-01-23T18:07:58.906Z,25.10
2019-01-23T18:10:07.023Z,25.04
2019-01-23T18:12:14.970Z,24.94
2019-01-23T18:14:22.199Z,24.91
2019-01-23T18:16:29.541Z,24.85
2019-01-23T18:18:36.827Z,24.79
2019-01-23T18:20:44.724Z,24.72
2019-01-23T18:22:52.028Z,24.59
2019-01-23T18:24:59.789Z,24.53
2019-01-23T18:27:07.704Z,24.50
2019-01-23T18:29:14.871Z,24.45
2019-01-23T18:31:54.651Z,24.38
2019-01-23T18:34:15.378Z,24.34
2019-01-23T18:36:59.149Z,24.25
2019-01-23T18:39:20.863Z,24.23
2019-01-23T18:42:12.355Z,24.34
2019-01-23T18:44:33.896Z,24.43
2019-01-23T18:47:22.815Z,24.69
2019-01-23T18:49:45.728Z,24.88
2019-01-23T18:52:13.664Z,25.03
2019-01-23T18:54:21.389Z,25.13
2019-01-23T18:56:28.680Z,25.11
2019-01-23T18:58:35.981Z,25.04
2019-01-23T19:00:43.798Z,25.06
2019-01-23T19:02:51.046Z,24.92
2019-01-23T19:04:58.839Z,24.96
2019-01-23T19:07:06.105Z,24.91
2019-01-23T19:09:14.265Z,24.89
2019-01-23T19:11:22.088Z,24.89
2019-01-23T19:13:29.362Z,24.87
2019-01-23T19:15:37.155Z,24.87
2019-01-23T19:17:44.506Z,24.94
2019-01-23T19:19:53.013Z,24.82
2019-01-23T19:22:00.068Z,24.85
2019-01-23T19:24:07.378Z,24.75
2019-01-23T19:26:14.888Z,24.69
2019-01-23T19:28:30.992Z,24.65
2019-01-23T19:30:43.011Z,24.65
2019-01-23T19:32:53.085Z,24.64
2019-01-23T19:35:05.977Z,24.65
2019-01-23T19:37:21.890Z,24.67
2019-01-23T19:39:29.888Z,24.82
2019-01-23T19:41:57.037Z,24.99
2019-01-23T19:44:22.977Z,25.13
2019-01-23T19:46:32.046Z,25.26
2019-01-23T19:48:42.771Z,25.49
2019-01-23T19:50:53.849Z,25.64
2019-01-23T19:53:27.746Z,25.76
2019-01-23T19:55:40.144Z,25.77
2019-01-23T19:58:07.442Z,25.64
2019-01-23T20:00:28.217Z,25.53
2019-01-23T20:02:38.060Z,25.45
2019-01-23T20:04:46.796Z,25.32
2019-01-23T20:07:12.456Z,25.23
2019-01-23T20:12:35.526Z,25.07
2019-01-23T20:14:42.687Z,24.92
2019-01-23T20:16:50.211Z,24.88
2019-01-23T20:18:58.048Z,24.84
2019-01-23T20:21:58.607Z,24.83
2019-01-23T20:24:29.977Z,24.76
2019-01-23T20:26:55.057Z,24.69
2019-01-23T20:29:05.217Z,24.64
2019-01-23T20:31:34.710Z,24.60
2019-01-23T20:33:52.359Z,24.63
2019-01-23T20:36:10.100Z,24.83
2019-01-23T20:38:31.812Z,24.99
2019-01-23T20:40:40.904Z,25.16
2019-01-23T20:42:48.421Z,25.27
2019-01-23T20:44:55.936Z,25.42
2019-01-23T20:47:03.743Z,25.56
2019-01-23T20:49:11.206Z,25.69
2019-01-23T20:51:19.412Z,25.76
2019-01-23T20:53:26.638Z,25.80
2019-01-23T20:55:34.614Z,25.78
2019-01-23T20:57:42.696Z,25.75
2019-01-23T20:59:51.175Z,25.73
2019-01-23T21:01:59.039Z,25.63
2019-01-23T21:04:06.324Z,25.53
2019-01-23T21:06:13.763Z,25.34
2019-01-23T21:08:21.979Z,25.29
2019-01-23T21:10:29.891Z,25.28
2019-01-23T21:12:42.168Z,25.21
2019-01-23T21:14:56.450Z,24.96
2019-01-23T21:19:40.186Z,25.03
2019-01-23T21:21:47.542Z,24.86
2019-01-23T21:23:56.239Z,24.90
2019-01-23T21:26:13.331Z,24.89
2019-01-23T21:28:35.400Z,24.77
2019-01-23T21:30:48.024Z,24.67
2019-01-23T21:33:08.469Z,24.73
2019-01-23T21:35:27.568Z,24.64
2019-01-23T21:37:36.409Z,24.56
2019-01-23T21:39:43.858Z,24.58
2019-01-23T21:42:16.071Z,24.59
2019-01-23T21:44:41.856Z,24.55
2019-01-23T21:47:00.049Z,24.59
2019-01-23T21:49:17.669Z,24.69
2019-01-23T21:56:11.433Z,25.01
2019-01-23T21:58:24.322Z,25.12
2019-01-23T22:00:53.792Z,25.12
2019-01-23T22:03:03.802Z,25.18
2019-01-23T22:05:20.848Z,25.12
2019-01-23T22:07:30.711Z,24.98
2019-01-23T22:09:38.259Z,24.78
2019-01-23T22:11:46.716Z,24.65
2019-01-23T22:14:07.914Z,24.45
2019-01-23T22:16:15.995Z,24.34
2019-01-23T22:18:35.016Z,24.20
2019-01-23T22:21:04.146Z,24.04
2019-01-23T22:28:57.187Z,24.16
2019-01-23T22:31:14.873Z,24.23
2019-01-23T22:33:38.010Z,24.28
2019-01-23T22:35:56.305Z,24.39
2019-01-23T22:38:18.933Z,24.46
2019-01-23T22:40:33.315Z,24.42
2019-01-23T22:45:08.171Z,24.45
2019-01-23T22:47:16.106Z,24.45
2019-01-23T22:49:23.499Z,24.63
2019-01-23T22:51:31.033Z,24.74
2019-01-23T22:53:38.452Z,24.83
2019-01-23T22:55:46.364Z,24.82
2019-01-23T22:57:53.663Z,24.90
2019-01-23T23:00:00.795Z,25.03
2019-01-23T23:02:08.186Z,25.13
2019-01-23T23:04:15.528Z,25.15
2019-01-23T23:06:23.073Z,24.96
2019-01-23T23:08:30.277Z,24.91
2019-01-23T23:10:37.725Z,24.95
2019-01-23T23:12:44.923Z,25.01
2019-01-23T23:14:52.151Z,25.14
2019-01-23T23:16:59.356Z,25.25
2019-01-23T23:19:06.806Z,25.35
2019-01-23T23:21:52.812Z,25.46
2019-01-23T23:24:05.189Z,25.58
2019-01-23T23:26:27.808Z,25.75
2019-01-23T23:28:35.706Z,25.77
2019-01-23T23:30:53.151Z,25.94
2019-01-23T23:33:11.359Z,25.96
2019-01-23T23:35:21.019Z,26.07
2019-01-23T23:37:39.584Z,26.09
2019-01-23T23:42:46.110Z,26.27
2019-01-23T23:44:53.946Z,26.32
2019-01-23T23:47:01.277Z,26.37
2019-01-23T23:49:10.306Z,26.28
2019-01-23T23:51:41.613Z,26.11
2019-01-23T23:54:06.250Z,26.03
2019-01-23T23:56:37.518Z,25.80
2019-01-23T23:58:45.122Z,25.59
